sensor_id;sensor_type;location;lat;lon;timestamp;pressure;altitude;pressure_sealevel;temperature;humidity
65276;BME280;51875;49.994;14.052;2022-09-03T00:00:16;98436.81;;;10.21;100.00
65276;BME280;51875;49.994;14.052;2022-09-03T00:02:06;98442.75;;;10.26;100.00
65276;BME280;51875;49.994;14.052;2022-09-03T00:03:30;98442.06;;;10.20;100.00
65276;BME280;51875;49.994;14.052;2022-09-03T00:06:32;98441.78;;;10.30;100.00
65276;BME280;51875;49.994;14.052;2022-09-03T00:08:16;98441.84;;;10.29;100.00
65276;BME280;51875;49.994;14.052;2022-09-03T00:09:49;98438.47;;;10.24;100.00
65276;BME280;51875;49.994;14.052;2022-09-03T00:12:32;98431.56;;;10.21;100.00
65276;BME280;51875;49.994;14.052;2022-09-03T00:15:35;98430.59;;;10.25;100.00
65276;BME280;51875;49.994;14.052;2022-09-03T00:16:56;98433.19;;;10.27;100.00
65276;BME280;51875;49.994;14.052;2022-09-03T00:18:17;98432.31;;;10.25;100.00
65276;BME280;51875;49.994;14.052;2022-09-03T00:19:40;98432.38;;;10.23;100.00
65276;BME280;51875;49.994;14.052;2022-09-03T00:21:28;98431.59;;;10.20;100.00
65276;BME280;51875;49.994;14.052;2022-09-03T00:22:57;98433.03;;;9.98;100.00
65276;BME280;51875;49.994;14.052;2022-09-03T00:24:18;98434.50;;;10.09;100.00
65276;BME280;51875;49.994;14.052;2022-09-03T00:25:39;98440.38;;;10.17;100.00
65276;BME280;51875;49.994;14.052;2022-09-03T00:27:00;98439.25;;;10.27;100.00
65276;BME280;51875;49.994;14.052;2022-09-03T00:28:38;98449.81;;;10.24;100.00
65276;BME280;51875;49.994;14.052;2022-09-03T00:30:00;98436.81;;;10.21;100.00
65276;BME280;51875;49.994;14.052;2022-09-03T00:31:24;98448.31;;;10.14;100.00
65276;BME280;51875;49.994;14.052;2022-09-03T00:32:51;98442.19;;;10.15;100.00
65276;BME280;51875;49.994;14.052;2022-09-03T00:34:16;98446.84;;;10.03;100.00
65276;BME280;51875;49.994;14.052;2022-09-03T00:35:45;98446.09;;;9.98;100.00
65276;BME280;51875;49.994;14.052;2022-09-03T00:37:03;98448.63;;;10.01;100.00
65276;BME280;51875;49.994;14.052;2022-09-03T00:38:19;98445.13;;;10.02;100.00
65276;BME280;51875;49.994;14.052;2022-09-03T00:39:37;98446.91;;;10.00;100.00
65276;BME280;51875;49.994;14.052;2022-09-03T00:41:22;98446.06;;;10.00;100.00
65276;BME280;51875;49.994;14.052;2022-09-03T00:43:02;98446.31;;;9.89;100.00
65276;BME280;51875;49.994;14.052;2022-09-03T00:51:16;98432.88;;;9.32;100.00
65276;BME280;51875;49.994;14.052;2022-09-03T00:52:48;98436.03;;;9.46;100.00
65276;BME280;51875;49.994;14.052;2022-09-03T00:54:18;98433.19;;;9.56;100.00
65276;BME280;51875;49.994;14.052;2022-09-03T00:55:51;98432.59;;;9.44;100.00
65276;BME280;51875;49.994;14.052;2022-09-03T01:00:31;98430.97;;;9.39;100.00
65276;BME280;51875;49.994;14.052;2022-09-03T01:01:54;98424.81;;;9.43;100.00
65276;BME280;51875;49.994;14.052;2022-09-03T01:04:59;98428.19;;;9.46;100.00
65276;BME280;51875;49.994;14.052;2022-09-03T01:07:45;98422.94;;;9.48;100.00
65276;BME280;51875;49.994;14.052;2022-09-03T01:09:15;98421.41;;;9.38;100.00
65276;BME280;51875;49.994;14.052;2022-09-03T01:12:41;98423.41;;;9.26;100.00
65276;BME280;51875;49.994;14.052;2022-09-03T01:15:44;98424.66;;;9.11;100.00
65276;BME280;51875;49.994;14.052;2022-09-03T01:27:43;98433.28;;;8.72;100.00
65276;BME280;51875;49.994;14.052;2022-09-03T01:29:07;98435.94;;;8.71;100.00
65276;BME280;51875;49.994;14.052;2022-09-03T01:30:27;98423.53;;;8.82;100.00
65276;BME280;51875;49.994;14.052;2022-09-03T01:32:08;98433.09;;;8.82;100.00
65276;BME280;51875;49.994;14.052;2022-09-03T01:33:34;98423.88;;;8.65;100.00
65276;BME280;51875;49.994;14.052;2022-09-03T01:35:02;98429.19;;;8.59;100.00
65276;BME280;51875;49.994;14.052;2022-09-03T01:39:28;98424.78;;;8.62;100.00
65276;BME280;51875;49.994;14.052;2022-09-03T01:42:39;98433.41;;;8.68;100.00
65276;BME280;51875;49.994;14.052;2022-09-03T01:45:54;98428.84;;;8.76;100.00
65276;BME280;51875;49.994;14.052;2022-09-03T01:47:31;98436.75;;;8.74;100.00
65276;BME280;51875;49.994;14.052;2022-09-03T01:49:09;98431.47;;;8.76;100.00
65276;BME280;51875;49.994;14.052;2022-09-03T01:50:47;98433.41;;;8.68;100.00
65276;BME280;51875;49.994;14.052;2022-09-03T01:52:06;98423.69;;;8.74;100.00
65276;BME280;51875;49.994;14.052;2022-09-03T01:53:54;98428.91;;;8.74;100.00
65276;BME280;51875;49.994;14.052;2022-09-03T01:57:03;98439.53;;;8.64;100.00
65276;BME280;51875;49.994;14.052;2022-09-03T01:58:32;98434.31;;;8.64;100.00
65276;BME280;51875;49.994;14.052;2022-09-03T02:00:00;98432.69;;;8.59;100.00
65276;BME280;51875;49.994;14.052;2022-09-03T02:01:28;98434.31;;;8.64;100.00
65276;BME280;51875;49.994;14.052;2022-09-03T02:02:45;98435.28;;;8.59;100.00
65276;BME280;51875;49.994;14.052;2022-09-03T02:04:20;98438.03;;;8.53;100.00
65276;BME280;51875;49.994;14.052;2022-09-03T02:05:38;98439.88;;;8.45;100.00
65276;BME280;51875;49.994;14.052;2022-09-03T02:06:55;98436.59;;;8.35;100.00
65276;BME280;51875;49.994;14.052;2022-09-03T02:08:11;98442.72;;;8.34;100.00
65276;BME280;51875;49.994;14.052;2022-09-03T02:09:27;98449.88;;;8.23;100.00
65276;BME280;51875;49.994;14.052;2022-09-03T02:10:45;98448.22;;;8.18;100.00
65276;BME280;51875;49.994;14.052;2022-09-03T02:12:09;98449.94;;;8.19;100.00
65276;BME280;51875;49.994;14.052;2022-09-03T02:13:29;98448.97;;;8.25;100.00
65276;BME280;51875;49.994;14.052;2022-09-03T02:14:46;98454.03;;;8.33;100.00
65276;BME280;51875;49.994;14.052;2022-09-03T02:16:10;98449.94;;;8.19;100.00
65276;BME280;51875;49.994;14.052;2022-09-03T02:17:27;98445.47;;;8.26;100.00
65276;BME280;51875;49.994;14.052;2022-09-03T02:18:51;98446.31;;;8.27;100.00
65276;BME280;51875;49.994;14.052;2022-09-03T02:20:11;98444.44;;;8.33;100.00
65276;BME280;51875;49.994;14.052;2022-09-03T02:21:34;98449.59;;;8.37;100.00
65276;BME280;51875;49.994;14.052;2022-09-03T02:22:51;98451.50;;;8.28;100.00
65276;BME280;51875;49.994;14.052;2022-09-03T02:24:08;98445.41;;;8.29;100.00
65276;BME280;51875;49.994;14.052;2022-09-03T02:25:29;98449.03;;;8.20;100.00
65276;BME280;51875;49.994;14.052;2022-09-03T02:26:46;98449.19;;;8.11;100.00
65276;BME280;51875;49.994;14.052;2022-09-03T02:28:04;98449.19;;;8.13;100.00
65276;BME280;51875;49.994;14.052;2022-09-03T02:29:20;98441.28;;;8.16;100.00
65276;BME280;51875;49.994;14.052;2022-09-03T02:30:36;98449.13;;;8.16;100.00
65276;BME280;51875;49.994;14.052;2022-09-03T02:31:52;98444.66;;;8.21;100.00
65276;BME280;51875;49.994;14.052;2022-09-03T02:33:07;98449.09;;;8.17;100.00
65276;BME280;51875;49.994;14.052;2022-09-03T02:34:23;98450.81;;;8.18;100.00
65276;BME280;51875;49.994;14.052;2022-09-03T02:35:39;98459.53;;;8.17;100.00
65276;BME280;51875;49.994;14.052;2022-09-03T02:36:56;98449.81;;;8.26;100.00
65276;BME280;51875;49.994;14.052;2022-09-03T02:38:20;98448.03;;;8.28;100.00
65276;BME280;51875;49.994;14.052;2022-09-03T02:39:36;98456.81;;;8.22;100.00
65276;BME280;51875;49.994;14.052;2022-09-03T02:40:53;98452.50;;;8.21;100.00
65276;BME280;51875;49.994;14.052;2022-09-03T02:42:11;98452.47;;;8.23;100.00
65276;BME280;51875;49.994;14.052;2022-09-03T02:45:28;98448.66;;;7.94;100.00
65276;BME280;51875;49.994;14.052;2022-09-03T02:46:49;98455.59;;;7.93;100.00
65276;BME280;51875;49.994;14.052;2022-09-03T02:48:06;98445.97;;;7.97;100.00
65276;BME280;51875;49.994;14.052;2022-09-03T02:49:23;98448.56;;;7.98;100.00
65276;BME280;51875;49.994;14.052;2022-09-03T02:50:40;98447.81;;;7.91;100.00
65276;BME280;51875;49.994;14.052;2022-09-03T02:51:58;98442.72;;;7.84;100.00
65276;BME280;51875;49.994;14.052;2022-09-03T02:53:15;98444.41;;;7.86;100.00
65276;BME280;51875;49.994;14.052;2022-09-03T02:54:32;98442.81;;;7.79;100.00
65276;BME280;51875;49.994;14.052;2022-09-03T02:55:50;98436.84;;;7.72;100.00
65276;BME280;51875;49.994;14.052;2022-09-03T02:57:11;98432.44;;;7.76;100.00
65276;BME280;51875;49.994;14.052;2022-09-03T02:58:28;98437.03;;;7.58;100.00
65276;BME280;51875;49.994;14.052;2022-09-03T02:59:45;98436.28;;;7.52;100.00
65276;BME280;51875;49.994;14.052;2022-09-03T03:01:01;98437.22;;;7.46;100.00
65276;BME280;51875;49.994;14.052;2022-09-03T03:02:16;98431.94;;;7.52;100.00
65276;BME280;51875;49.994;14.052;2022-09-03T03:03:32;98437.09;;;7.57;100.00
65276;BME280;51875;49.994;14.052;2022-09-03T03:04:48;98437.75;;;7.68;100.00
65276;BME280;51875;49.994;14.052;2022-09-03T03:06:04;98439.44;;;7.71;100.00
65276;BME280;51875;49.994;14.052;2022-09-03T03:07:20;98440.53;;;7.57;100.00
65276;BME280;51875;49.994;14.052;2022-09-03T03:08:36;98444.72;;;7.66;100.00
65276;BME280;51875;49.994;14.052;2022-09-03T03:09:52;98437.00;;;7.61;100.00
65276;BME280;51875;49.994;14.052;2022-09-03T03:11:08;98442.19;;;7.63;100.00
65276;BME280;51875;49.994;14.052;2022-09-03T03:12:23;98445.69;;;7.60;100.00
65276;BME280;51875;49.994;14.052;2022-09-03T03:13:40;98453.63;;;7.54;100.00
65276;BME280;51875;49.994;14.052;2022-09-03T03:14:55;98445.78;;;7.56;100.00
65276;BME280;51875;49.994;14.052;2022-09-03T03:16:12;98437.91;;;7.59;100.00
65276;BME280;51875;49.994;14.052;2022-09-03T03:17:28;98444.84;;;7.60;100.00
65276;BME280;51875;49.994;14.052;2022-09-03T03:18:44;98441.50;;;7.52;100.00
65276;BME280;51875;49.994;14.052;2022-09-03T03:20:02;98443.31;;;7.46;100.00
65276;BME280;51875;49.994;14.052;2022-09-03T03:21:18;98442.38;;;7.51;100.00
65276;BME280;51875;49.994;14.052;2022-09-03T03:22:33;98444.09;;;7.52;100.00
65276;BME280;51875;49.994;14.052;2022-09-03T03:23:50;98447.44;;;7.61;100.00
65276;BME280;51875;49.994;14.052;2022-09-03T03:25:05;98448.16;;;7.68;100.00
65276;BME280;51875;49.994;14.052;2022-09-03T03:26:21;98445.63;;;7.65;100.00
65276;BME280;51875;49.994;14.052;2022-09-03T03:27:37;98440.47;;;7.60;100.00
65276;BME280;51875;49.994;14.052;2022-09-03T03:28:58;98440.72;;;7.46;100.00
65276;BME280;51875;49.994;14.052;2022-09-03T03:30:14;98438.22;;;7.37;100.00
65276;BME280;51875;49.994;14.052;2022-09-03T03:31:30;98441.84;;;7.28;100.00
65276;BME280;51875;49.994;14.052;2022-09-03T03:32:46;98437.50;;;7.27;100.00
65276;BME280;51875;49.994;14.052;2022-09-03T03:34:02;98438.34;;;7.31;100.00
65276;BME280;51875;49.994;14.052;2022-09-03T03:35:18;98436.47;;;7.39;100.00
65276;BME280;51875;49.994;14.052;2022-09-03T03:36:34;98438.38;;;7.28;100.00
65276;BME280;51875;49.994;14.052;2022-09-03T03:37:50;98434.97;;;7.23;100.00
65276;BME280;51875;49.994;14.052;2022-09-03T03:39:06;98437.53;;;7.26;100.00
65276;BME280;51875;49.994;14.052;2022-09-03T03:40:21;98438.31;;;7.32;100.00
65276;BME280;51875;49.994;14.052;2022-09-03T03:41:37;98437.53;;;7.26;100.00
65276;BME280;51875;49.994;14.052;2022-09-03T03:42:53;98429.69;;;7.27;100.00
65276;BME280;51875;49.994;14.052;2022-09-03T03:44:09;98430.53;;;7.31;100.00
65276;BME280;51875;49.994;14.052;2022-09-03T03:45:25;98426.16;;;7.33;100.00
65276;BME280;51875;49.994;14.052;2022-09-03T03:46:40;98434.06;;;7.27;100.00
65276;BME280;51875;49.994;14.052;2022-09-03T03:47:57;98424.72;;;7.12;100.00
65276;BME280;51875;49.994;14.052;2022-09-03T03:49:13;98435.13;;;7.13;100.00
65276;BME280;51875;49.994;14.052;2022-09-03T03:50:29;98433.38;;;7.14;100.00
65276;BME280;51875;49.994;14.052;2022-09-03T03:51:46;98428.09;;;7.18;100.00
65276;BME280;51875;49.994;14.052;2022-09-03T03:53:01;98429.88;;;7.16;100.00
65276;BME280;51875;49.994;14.052;2022-09-03T03:54:17;98429.88;;;7.16;100.00
65276;BME280;51875;49.994;14.052;2022-09-03T03:55:33;98427.22;;;7.19;100.00
65276;BME280;51875;49.994;14.052;2022-09-03T03:56:49;98427.28;;;7.15;100.00
65276;BME280;51875;49.994;14.052;2022-09-03T03:58:04;98428.22;;;7.09;100.00
65276;BME280;51875;49.994;14.052;2022-09-03T03:59:20;98425.56;;;7.12;100.00
65276;BME280;51875;49.994;14.052;2022-09-03T04:00:36;98419.53;;;7.10;100.00
65276;BME280;51875;49.994;14.052;2022-09-03T04:01:55;98428.22;;;7.09;100.00
65276;BME280;51875;49.994;14.052;2022-09-03T04:03:10;98423.94;;;7.06;100.00
65276;BME280;51875;49.994;14.052;2022-09-03T04:04:26;98423.88;;;7.10;100.00
65276;BME280;51875;49.994;14.052;2022-09-03T04:05:42;98425.66;;;7.06;100.00
65276;BME280;51875;49.994;14.052;2022-09-03T04:06:58;98428.25;;;7.07;100.00
65276;BME280;51875;49.994;14.052;2022-09-03T04:08:13;98419.56;;;7.07;100.00
65276;BME280;51875;49.994;14.052;2022-09-03T04:09:29;98423.00;;;7.11;100.00
65276;BME280;51875;49.994;14.052;2022-09-03T04:10:45;98425.78;;;6.98;100.00
65276;BME280;51875;49.994;14.052;2022-09-03T04:12:01;98421.44;;;6.99;100.00
65276;BME280;51875;49.994;14.052;2022-09-03T04:13:18;98415.34;;;7.00;100.00
65276;BME280;51875;49.994;14.052;2022-09-03T04:14:34;98418.03;;;6.93;100.00
65276;BME280;51875;49.994;14.052;2022-09-03T04:15:49;98424.16;;;6.89;100.00
65276;BME280;51875;49.994;14.052;2022-09-03T04:17:05;98419.84;;;6.87;100.00
65276;BME280;51875;49.994;14.052;2022-09-03T04:18:21;98425.81;;;6.95;100.00
65276;BME280;51875;49.994;14.052;2022-09-03T04:19:37;98425.00;;;6.91;100.00
65276;BME280;51875;49.994;14.052;2022-09-03T04:20:52;98425.78;;;7.00;100.00
65276;BME280;51875;49.994;14.052;2022-09-03T04:22:13;98431.81;;;7.02;100.00
65276;BME280;51875;49.994;14.052;2022-09-03T04:23:31;98427.66;;;6.88;100.00
65276;BME280;51875;49.994;14.052;2022-09-03T04:24:47;98430.09;;;6.98;100.00
65276;BME280;51875;49.994;14.052;2022-09-03T04:26:03;98425.78;;;6.97;100.00
65276;BME280;51875;49.994;14.052;2022-09-03T04:27:19;98424.38;;;6.72;100.00
65276;BME280;51875;49.994;14.052;2022-09-03T04:28:35;98422.50;;;6.84;100.00
65276;BME280;51875;49.994;14.052;2022-09-03T04:29:51;98419.88;;;6.85;100.00
65276;BME280;51875;49.994;14.052;2022-09-03T04:31:08;98424.38;;;6.72;100.00
65276;BME280;51875;49.994;14.052;2022-09-03T04:32:24;98419.22;;;6.71;100.00
65276;BME280;51875;49.994;14.052;2022-09-03T04:34:08;98414.91;;;6.67;100.00
65276;BME280;51875;49.994;14.052;2022-09-03T04:35:25;98420.00;;;6.76;100.00
65276;BME280;51875;49.994;14.052;2022-09-03T04:36:48;98420.03;;;6.73;100.00
65276;BME280;51875;49.994;14.052;2022-09-03T04:38:04;98418.19;;;6.83;100.00
65276;BME280;51875;49.994;14.052;2022-09-03T04:39:19;98412.84;;;6.92;100.00
65276;BME280;51875;49.994;14.052;2022-09-03T04:40:35;98417.97;;;7.00;100.00
65276;BME280;51875;49.994;14.052;2022-09-03T04:41:51;98419.63;;;7.04;100.00
65276;BME280;51875;49.994;14.052;2022-09-03T04:43:07;98420.44;;;7.07;100.00
65276;BME280;51875;49.994;14.052;2022-09-03T04:44:22;98416.09;;;7.08;100.00
65276;BME280;51875;49.994;14.052;2022-09-03T04:45:38;98412.56;;;7.12;100.00
65276;BME280;51875;49.994;14.052;2022-09-03T04:46:53;98414.25;;;7.16;100.00
65276;BME280;51875;49.994;14.052;2022-09-03T04:48:09;98420.28;;;7.20;100.00
65276;BME280;51875;49.994;14.052;2022-09-03T04:49:26;98421.22;;;7.14;100.00
65276;BME280;51875;49.994;14.052;2022-09-03T04:50:42;98420.19;;;7.25;100.00
65276;BME280;51875;49.994;14.052;2022-09-03T04:51:57;98414.00;;;7.32;100.00
65276;BME280;51875;49.994;14.052;2022-09-03T04:53:13;98413.94;;;7.37;100.00
65276;BME280;51875;49.994;14.052;2022-09-03T04:54:28;98413.06;;;7.36;100.00
65276;BME280;51875;49.994;14.052;2022-09-03T04:55:44;98425.22;;;7.37;100.00
65276;BME280;51875;49.994;14.052;2022-09-03T04:57:00;98420.94;;;7.33;100.00
65276;BME280;51875;49.994;14.052;2022-09-03T04:58:15;98425.25;;;7.35;100.00
65276;BME280;51875;49.994;14.052;2022-09-03T04:59:31;98423.44;;;7.39;100.00
65276;BME280;51875;49.994;14.052;2022-09-03T05:00:46;98425.19;;;7.39;100.00
65276;BME280;51875;49.994;14.052;2022-09-03T05:02:02;98419.13;;;7.38;100.00
65276;BME280;51875;49.994;14.052;2022-09-03T05:03:17;98420.94;;;7.31;100.00
65276;BME280;51875;49.994;14.052;2022-09-03T05:04:33;98417.41;;;7.37;100.00
65276;BME280;51875;49.994;14.052;2022-09-03T05:05:55;98417.38;;;7.39;100.00
65276;BME280;51875;49.994;14.052;2022-09-03T05:07:11;98426.81;;;7.46;100.00
65276;BME280;51875;49.994;14.052;2022-09-03T05:08:26;98435.44;;;7.49;100.00
65276;BME280;51875;49.994;14.052;2022-09-03T05:09:42;98431.91;;;7.54;100.00
65276;BME280;51875;49.994;14.052;2022-09-03T05:11:01;98430.81;;;7.69;100.00
65276;BME280;51875;49.994;14.052;2022-09-03T05:12:17;98433.34;;;7.73;100.00
65276;BME280;51875;49.994;14.052;2022-09-03T05:13:33;98432.53;;;7.68;100.00
65276;BME280;51875;49.994;14.052;2022-09-03T05:14:49;98434.28;;;7.69;100.00
65276;BME280;51875;49.994;14.052;2022-09-03T05:16:07;98435.06;;;7.73;100.00
65276;BME280;51875;49.994;14.052;2022-09-03T05:17:23;98440.97;;;7.86;100.00
65276;BME280;51875;49.994;14.052;2022-09-03T05:18:38;98447.75;;;7.95;100.00
65276;BME280;51875;49.994;14.052;2022-09-03T05:19:56;98441.28;;;8.16;100.00
65276;BME280;51875;49.994;14.052;2022-09-03T05:21:17;98438.91;;;8.03;100.00
65276;BME280;51875;49.994;14.052;2022-09-03T05:22:33;98439.69;;;8.09;100.00
65276;BME280;51875;49.994;14.052;2022-09-03T05:23:50;98443.13;;;8.11;100.00
65276;BME280;51875;49.994;14.052;2022-09-03T05:25:06;98441.44;;;8.08;100.00
65276;BME280;51875;49.994;14.052;2022-09-03T05:26:26;98432.66;;;8.14;100.00
65276;BME280;51875;49.994;14.052;2022-09-03T05:27:41;98434.28;;;8.19;100.00
65276;BME280;51875;49.994;14.052;2022-09-03T05:28:59;98441.13;;;8.25;100.00
65276;BME280;51875;49.994;14.052;2022-09-03T05:30:15;98443.88;;;8.17;100.00
65276;BME280;51875;49.994;14.052;2022-09-03T05:31:31;98437.69;;;8.23;100.00
65276;BME280;51875;49.994;14.052;2022-09-03T05:32:47;98436.69;;;8.30;100.00
65276;BME280;51875;49.994;14.052;2022-09-03T05:34:04;98440.19;;;8.29;100.00
65276;BME280;51875;49.994;14.052;2022-09-03T05:35:20;98442.72;;;8.34;100.00
65276;BME280;51875;49.994;14.052;2022-09-03T05:36:38;98440.94;;;8.36;100.00
65276;BME280;51875;49.994;14.052;2022-09-03T05:37:54;98430.44;;;8.39;100.00
65276;BME280;51875;49.994;14.052;2022-09-03T05:39:10;98435.66;;;8.38;100.00
65276;BME280;51875;49.994;14.052;2022-09-03T05:40:25;98441.59;;;8.46;100.00
65276;BME280;51875;49.994;14.052;2022-09-03T05:41:41;98441.59;;;8.47;100.00
65276;BME280;51875;49.994;14.052;2022-09-03T05:42:57;98442.44;;;8.48;100.00
65276;BME280;51875;49.994;14.052;2022-09-03T05:44:13;98435.34;;;8.56;100.00
65276;BME280;51875;49.994;14.052;2022-09-03T05:45:29;98435.31;;;8.58;100.00
65276;BME280;51875;49.994;14.052;2022-09-03T05:46:46;98440.53;;;8.58;100.00
65276;BME280;51875;49.994;14.052;2022-09-03T05:48:02;98444.84;;;8.60;100.00
65276;BME280;51875;49.994;14.052;2022-09-03T05:49:17;98444.91;;;8.57;100.00
65276;BME280;51875;49.994;14.052;2022-09-03T05:50:33;98440.66;;;8.52;100.00
65276;BME280;51875;49.994;14.052;2022-09-03T05:51:49;98444.16;;;8.49;100.00
65276;BME280;51875;49.994;14.052;2022-09-03T05:53:05;98444.03;;;8.57;100.00
65276;BME280;51875;49.994;14.052;2022-09-03T05:54:20;98444.84;;;8.60;100.00
65276;BME280;51875;49.994;14.052;2022-09-03T05:55:36;98443.75;;;8.71;100.00
65276;BME280;51875;49.994;14.052;2022-09-03T05:56:52;98451.44;;;8.79;100.00
65276;BME280;51875;49.994;14.052;2022-09-03T05:58:07;98447.94;;;8.80;100.00
65276;BME280;51875;49.994;14.052;2022-09-03T05:59:23;98450.56;;;8.78;100.00
65276;BME280;51875;49.994;14.052;2022-09-03T06:00:38;98448.75;;;8.82;100.00
65276;BME280;51875;49.994;14.052;2022-09-03T06:01:54;98453.97;;;8.82;100.00
65276;BME280;51875;49.994;14.052;2022-09-03T06:03:10;98445.97;;;8.91;100.00
65276;BME280;51875;49.994;14.052;2022-09-03T06:04:25;98441.50;;;8.96;100.00
65276;BME280;51875;49.994;14.052;2022-09-03T06:05:49;98450.84;;;9.08;100.00
65276;BME280;51875;49.994;14.052;2022-09-03T06:07:05;98445.53;;;9.11;100.00
65276;BME280;51875;49.994;14.052;2022-09-03T06:08:21;98440.25;;;9.14;100.00
65276;BME280;51875;49.994;14.052;2022-09-03T06:09:36;98440.16;;;9.17;100.00
65276;BME280;51875;49.994;14.052;2022-09-03T06:10:57;98445.19;;;9.27;100.00
65276;BME280;51875;49.994;14.052;2022-09-03T06:12:13;98437.66;;;9.13;100.00
65276;BME280;51875;49.994;14.052;2022-09-03T06:13:30;98437.69;;;9.11;100.00
65276;BME280;51875;49.994;14.052;2022-09-03T06:14:45;98442.59;;;9.27;100.00
65276;BME280;51875;49.994;14.052;2022-09-03T06:16:05;98438.00;;;9.35;100.00
65276;BME280;51875;49.994;14.052;2022-09-03T06:17:21;98439.63;;;9.41;100.00
65276;BME280;51875;49.994;14.052;2022-09-03T06:18:36;98437.69;;;9.51;100.00
65276;BME280;51875;49.994;14.052;2022-09-03T06:19:52;98441.94;;;9.55;100.00
65276;BME280;51875;49.994;14.052;2022-09-03T06:21:07;98445.34;;;9.58;100.00
65276;BME280;51875;49.994;14.052;2022-09-03T06:22:23;98438.66;;;9.83;100.00
65276;BME280;51875;49.994;14.052;2022-09-03T06:23:42;98438.69;;;9.81;100.00
65276;BME280;51875;49.994;14.052;2022-09-03T06:24:58;98438.38;;;9.94;100.00
65276;BME280;51875;49.994;14.052;2022-09-03T06:26:13;98439.13;;;9.99;100.00
65276;BME280;51875;49.994;14.052;2022-09-03T06:27:29;98441.78;;;9.97;100.00
65276;BME280;51875;49.994;14.052;2022-09-03T06:28:47;98444.22;;;10.03;100.00
65276;BME280;51875;49.994;14.052;2022-09-03T06:30:03;98441.66;;;10.02;100.00
65276;BME280;51875;49.994;14.052;2022-09-03T06:31:24;98426.47;;;10.16;100.00
65276;BME280;51875;49.994;14.052;2022-09-03T06:32:47;98435.09;;;10.20;100.00
65276;BME280;51875;49.994;14.052;2022-09-03T06:34:04;98436.53;;;10.30;100.00
65276;BME280;51875;49.994;14.052;2022-09-03T06:35:20;98440.25;;;10.56;100.00
65276;BME280;51875;49.994;14.052;2022-09-03T06:36:35;98439.22;;;10.62;100.00
65276;BME280;51875;49.994;14.052;2022-09-03T06:37:51;98434.56;;;10.72;100.00
65276;BME280;51875;49.994;14.052;2022-09-03T06:39:07;98436.34;;;10.71;100.00
65276;BME280;51875;49.994;14.052;2022-09-03T06:40:23;98436.72;;;10.87;100.00
65276;BME280;51875;49.994;14.052;2022-09-03T06:41:40;98438.44;;;10.88;100.00
65276;BME280;51875;49.994;14.052;2022-09-03T06:42:56;98432.94;;;10.98;100.00
65276;BME280;51875;49.994;14.052;2022-09-03T06:44:17;98442.88;;;10.86;100.00
65276;BME280;51875;49.994;14.052;2022-09-03T06:45:33;98436.28;;;11.03;100.00
65276;BME280;51875;49.994;14.052;2022-09-03T06:46:48;98433.38;;;11.12;100.00
65276;BME280;51875;49.994;14.052;2022-09-03T06:48:07;98431.56;;;11.14;100.00
65276;BME280;51875;49.994;14.052;2022-09-03T06:49:23;98433.59;;;11.06;100.00
65276;BME280;51875;49.994;14.052;2022-09-03T06:50:40;98431.50;;;11.18;100.00
65276;BME280;51875;49.994;14.052;2022-09-03T06:51:55;98432.78;;;11.33;100.00
65276;BME280;51875;49.994;14.052;2022-09-03T06:53:11;98428.81;;;11.48;100.00
65276;BME280;51875;49.994;14.052;2022-09-03T06:54:27;98438.00;;;11.61;100.00
65276;BME280;51875;49.994;14.052;2022-09-03T06:55:42;98428.97;;;11.70;100.00
65276;BME280;51875;49.994;14.052;2022-09-03T06:56:59;98424.44;;;11.75;100.00
65276;BME280;51875;49.994;14.052;2022-09-03T06:58:15;98432.19;;;11.78;100.00
65276;BME280;51875;49.994;14.052;2022-09-03T06:59:31;98429.97;;;11.93;100.00
65276;BME280;51875;49.994;14.052;2022-09-03T07:00:47;98431.28;;;11.79;100.00
65276;BME280;51875;49.994;14.052;2022-09-03T07:02:03;98427.41;;;11.91;100.00
65276;BME280;51875;49.994;14.052;2022-09-03T07:03:20;98426.75;;;11.84;100.00
65276;BME280;51875;49.994;14.052;2022-09-03T07:04:35;98420.88;;;11.78;100.00
65276;BME280;51875;49.994;14.052;2022-09-03T07:05:51;98427.31;;;11.94;100.00
65276;BME280;51875;49.994;14.052;2022-09-03T07:07:06;98424.41;;;12.04;100.00
65276;BME280;51875;49.994;14.052;2022-09-03T07:08:27;98424.72;;;12.20;100.00
65276;BME280;51875;49.994;14.052;2022-09-03T07:09:44;98419.03;;;12.32;100.00
65276;BME280;51875;49.994;14.052;2022-09-03T07:11:00;98423.16;;;12.39;100.00
65276;BME280;51875;49.994;14.052;2022-09-03T07:12:19;98418.28;;;12.54;100.00
65276;BME280;51875;49.994;14.052;2022-09-03T07:13:39;98410.88;;;12.65;100.00
65276;BME280;51875;49.994;14.052;2022-09-03T07:14:55;98415.94;;;12.70;100.00
65276;BME280;51875;49.994;14.052;2022-09-03T07:16:14;98413.88;;;13.02;100.00
65276;BME280;51875;49.994;14.052;2022-09-03T07:17:30;98412.97;;;13.03;100.00
65276;BME280;51875;49.994;14.052;2022-09-03T07:18:46;98409.63;;;12.98;100.00
65276;BME280;51875;49.994;14.052;2022-09-03T07:20:02;98406.78;;;13.26;100.00
65276;BME280;51875;49.994;14.052;2022-09-03T07:21:23;98410.78;;;13.14;100.00
65276;BME280;51875;49.994;14.052;2022-09-03T07:22:39;98420.38;;;13.16;100.00
65276;BME280;51875;49.994;14.052;2022-09-03T07:23:55;98415.97;;;13.38;100.00
65276;BME280;51875;49.994;14.052;2022-09-03T07:25:11;98421.81;;;13.47;100.00
65276;BME280;51875;49.994;14.052;2022-09-03T07:26:28;98418.50;;;13.64;100.00
65276;BME280;51875;49.994;14.052;2022-09-03T07:27:44;98412.13;;;13.69;100.00
65276;BME280;51875;49.994;14.052;2022-09-03T07:29:02;98407.16;;;13.84;100.00
65276;BME280;51875;49.994;14.052;2022-09-03T07:30:17;98411.81;;;13.98;100.00
65276;BME280;51875;49.994;14.052;2022-09-03T07:31:38;98401.41;;;14.16;100.00
65276;BME280;51875;49.994;14.052;2022-09-03T07:32:54;98401.66;;;14.30;100.00